createdAt,value
2019-01-30T00:01:52.047Z,10.70
2019-01-30T00:03:52.896Z,10.97
2019-01-30T00:05:53.748Z,9.60
2019-01-30T00:07:54.575Z,10.27
2019-01-30T00:09:55.433Z,10.80
2019-01-30T00:11:56.260Z,11.77
2019-01-30T00:13:57.112Z,9.20
2019-01-30T00:15:57.952Z,9.97
2019-01-30T00:17:58.788Z,10.67
2019-01-30T00:19:59.632Z,10.23
2019-01-30T00:22:00.484Z,10.43
2019-01-30T00:24:01.315Z,11.20
2019-01-30T00:26:02.145Z,9.73
2019-01-30T00:28:02.990Z,9.33
2019-01-30T00:30:04.550Z,9.53
2019-01-30T00:32:05.756Z,9.00
2019-01-30T00:34:06.596Z,10.07
2019-01-30T00:36:07.440Z,12.13
2019-01-30T00:38:08.283Z,11.53
2019-01-30T00:40:09.452Z,10.70
2019-01-30T00:42:10.284Z,9.10
2019-01-30T00:44:11.129Z,10.63
2019-01-30T00:46:11.964Z,9.63
2019-01-30T00:48:12.788Z,10.20
2019-01-30T00:50:13.932Z,8.53
2019-01-30T00:52:14.768Z,11.17
2019-01-30T00:54:15.604Z,10.93
2019-01-30T00:56:16.460Z,9.23
2019-01-30T00:58:17.303Z,9.10
2019-01-30T01:00:18.393Z,9.63
2019-01-30T01:02:19.216Z,9.10
2019-01-30T01:04:20.069Z,10.80
2019-01-30T01:06:21.192Z,9.57
2019-01-30T01:08:22.026Z,9.60
2019-01-30T01:10:22.860Z,9.53
2019-01-30T01:12:23.721Z,10.10
2019-01-30T01:14:24.554Z,9.60
2019-01-30T01:16:25.371Z,9.67
2019-01-30T01:18:26.519Z,8.80
2019-01-30T01:20:27.365Z,9.53
2019-01-30T01:22:28.192Z,8.70
2019-01-30T01:24:29.020Z,9.37
2019-01-30T01:26:30.140Z,9.23
2019-01-30T01:28:31.292Z,11.83
2019-01-30T01:30:32.120Z,8.53
2019-01-30T01:32:33.266Z,9.37
2019-01-30T01:34:34.112Z,8.73
2019-01-30T01:36:34.941Z,8.57
2019-01-30T01:38:35.772Z,10.27
2019-01-30T01:40:36.909Z,9.87
2019-01-30T01:42:38.033Z,10.30
2019-01-30T01:44:38.855Z,11.40
2019-01-30T01:46:39.695Z,10.90
2019-01-30T01:48:40.993Z,9.43
2019-01-30T01:50:41.815Z,10.83
2019-01-30T01:52:42.665Z,10.47
2019-01-30T01:54:43.505Z,10.73
2019-01-30T01:56:44.361Z,9.90
2019-01-30T01:58:45.193Z,10.10
2019-01-30T02:00:46.064Z,11.87
2019-01-30T02:02:46.904Z,9.83
2019-01-30T02:04:47.725Z,9.97
2019-01-30T02:06:48.569Z,9.13
2019-01-30T02:08:49.408Z,10.10
2019-01-30T02:10:50.244Z,10.37
2019-01-30T02:12:51.099Z,9.47
2019-01-30T02:14:51.949Z,10.27
2019-01-30T02:16:52.785Z,10.17
2019-01-30T02:18:53.969Z,10.77
2019-01-30T02:20:54.792Z,11.30
2019-01-30T02:22:55.620Z,11.70
2019-01-30T02:24:56.465Z,10.37
2019-01-30T02:26:57.304Z,10.37
2019-01-30T02:28:58.136Z,10.67
2019-01-30T02:30:59.210Z,12.40
2019-01-30T02:33:00.058Z,10.60
2019-01-30T02:35:01.228Z,11.77
2019-01-30T02:37:02.059Z,11.87
2019-01-30T02:39:03.753Z,13.40
2019-01-30T02:41:04.584Z,12.23
2019-01-30T02:43:05.425Z,12.80
2019-01-30T02:45:06.256Z,13.07
2019-01-30T02:47:07.464Z,12.60
2019-01-30T02:49:08.599Z,12.00
2019-01-30T02:51:09.424Z,12.83
2019-01-30T02:53:10.272Z,10.80
2019-01-30T02:55:11.128Z,12.33
2019-01-30T02:57:11.958Z,12.17
2019-01-30T02:59:12.804Z,10.50
2019-01-30T03:01:13.648Z,11.27
2019-01-30T03:03:14.833Z,11.30
2019-01-30T03:05:15.663Z,11.23
2019-01-30T03:07:16.509Z,11.17
2019-01-30T03:09:17.344Z,12.67
2019-01-30T03:11:18.187Z,11.37
2019-01-30T03:13:19.021Z,12.93
2019-01-30T03:15:19.856Z,11.93
2019-01-30T03:17:20.695Z,12.17
2019-01-30T03:19:21.536Z,13.37
2019-01-30T03:21:22.648Z,16.33
2019-01-30T03:23:23.485Z,12.73
2019-01-30T03:25:24.649Z,12.10
2019-01-30T03:27:25.708Z,12.47
2019-01-30T03:29:26.540Z,12.63
2019-01-30T03:31:27.402Z,13.13
2019-01-30T03:33:28.232Z,15.13
2019-01-30T03:35:29.416Z,14.93
2019-01-30T03:37:30.336Z,12.10
2019-01-30T03:39:31.592Z,12.20
2019-01-30T03:41:32.720Z,13.50
2019-01-30T03:43:33.573Z,13.50
2019-01-30T03:45:34.406Z,11.63
2019-01-30T03:47:35.516Z,13.83
2019-01-30T03:49:36.916Z,11.90
2019-01-30T03:51:37.744Z,12.43
2019-01-30T03:53:38.577Z,12.63
2019-01-30T03:55:39.416Z,11.90
2019-01-30T03:57:40.266Z,13.73
2019-01-30T03:59:41.132Z,13.00
2019-01-30T04:01:42.334Z,13.00
2019-01-30T04:03:43.182Z,13.43
2019-01-30T04:05:44.032Z,12.20
2019-01-30T04:07:44.902Z,14.40
2019-01-30T04:09:46.137Z,12.67
2019-01-30T04:11:47.023Z,15.30
2019-01-30T04:13:47.876Z,12.30
2019-01-30T04:15:49.047Z,10.93
2019-01-30T04:17:49.941Z,11.47
2019-01-30T04:19:50.776Z,14.20
2019-01-30T04:21:51.961Z,14.63
2019-01-30T04:23:52.791Z,13.33
2019-01-30T04:25:53.628Z,11.67
2019-01-30T04:27:54.468Z,10.57
2019-01-30T04:29:55.300Z,11.80
2019-01-30T04:31:56.126Z,11.67
2019-01-30T04:33:56.981Z,12.00
2019-01-30T04:35:57.841Z,12.53
2019-01-30T04:37:58.672Z,14.77
2019-01-30T04:39:59.504Z,12.40
2019-01-30T04:42:00.352Z,12.70
2019-01-30T04:44:01.189Z,13.57
2019-01-30T04:46:02.037Z,13.33
2019-01-30T04:48:02.871Z,13.63
2019-01-30T04:50:04.024Z,12.20
2019-01-30T04:52:05.111Z,16.67
2019-01-30T04:54:05.955Z,13.77
2019-01-30T04:56:06.803Z,12.87
2019-01-30T04:58:08.056Z,13.80
2019-01-30T05:00:08.888Z,12.33
2019-01-30T05:02:09.734Z,12.40
2019-01-30T05:04:10.880Z,12.47
2019-01-30T05:06:11.725Z,13.20
2019-01-30T05:08:12.565Z,14.00
2019-01-30T05:10:13.685Z,15.03
2019-01-30T05:12:15.067Z,12.07
2019-01-30T05:14:15.916Z,12.53
2019-01-30T05:16:16.746Z,12.57
2019-01-30T05:18:17.597Z,14.20
2019-01-30T05:20:18.432Z,13.70
2019-01-30T05:22:19.257Z,16.97
2019-01-30T05:24:20.343Z,14.80
2019-01-30T05:26:21.480Z,13.70
2019-01-30T05:28:22.604Z,14.43
2019-01-30T05:30:23.473Z,15.40
2019-01-30T05:32:24.329Z,16.27
2019-01-30T05:34:25.213Z,12.23
2019-01-30T05:36:26.372Z,15.33
2019-01-30T05:38:27.233Z,13.07
2019-01-30T05:40:28.073Z,14.77
2019-01-30T05:42:29.276Z,14.37
2019-01-30T05:44:30.389Z,15.80
2019-01-30T05:46:31.558Z,15.63
2019-01-30T05:48:32.672Z,13.53
2019-01-30T05:50:33.505Z,13.63
2019-01-30T05:52:34.502Z,16.03
2019-01-30T05:54:35.391Z,14.13
2019-01-30T05:56:36.216Z,13.93
2019-01-30T05:58:37.076Z,14.13
2019-01-30T06:00:41.249Z,15.67
2019-01-30T06:02:42.081Z,14.97
2019-01-30T06:04:43.224Z,15.40
2019-01-30T06:06:44.401Z,13.70
2019-01-30T06:08:45.228Z,14.97
2019-01-30T06:10:46.356Z,13.37
2019-01-30T06:12:47.506Z,17.07
2019-01-30T06:14:48.349Z,14.33
2019-01-30T06:16:49.184Z,18.20
2019-01-30T06:18:50.016Z,14.87
2019-01-30T06:20:50.872Z,15.97
2019-01-30T06:22:51.701Z,14.77
2019-01-30T06:24:52.532Z,15.93
2019-01-30T06:26:53.386Z,13.43
2019-01-30T06:28:54.238Z,15.63
2019-01-30T06:30:55.497Z,15.13
2019-01-30T06:32:56.345Z,16.70
2019-01-30T06:34:57.177Z,15.57
2019-01-30T06:36:58.012Z,15.20
2019-01-30T06:38:59.153Z,15.07
2019-01-30T06:40:59.981Z,15.63
2019-01-30T06:43:02.609Z,13.60
2019-01-30T06:45:03.900Z,12.13
2019-01-30T06:47:04.981Z,13.77
2019-01-30T06:49:05.835Z,12.97
2019-01-30T06:51:06.768Z,13.57
2019-01-30T06:53:07.629Z,13.63
2019-01-30T06:55:08.616Z,14.83
2019-01-30T06:57:09.460Z,15.33
2019-01-30T06:59:10.377Z,13.53
2019-01-30T07:01:11.219Z,15.10
2019-01-30T07:03:12.432Z,14.23
2019-01-30T07:05:13.260Z,14.67
2019-01-30T07:07:14.109Z,17.53
2019-01-30T07:09:14.945Z,15.10
2019-01-30T07:11:16.044Z,18.03
2019-01-30T07:13:16.873Z,15.93
2019-01-30T07:15:17.709Z,17.23
2019-01-30T07:17:18.556Z,14.20
2019-01-30T07:19:19.496Z,14.77
2019-01-30T07:21:20.339Z,15.37
2019-01-30T07:23:21.197Z,13.53
2019-01-30T07:25:22.047Z,17.10
2019-01-30T07:27:22.872Z,16.00
2019-01-30T07:29:24.172Z,15.50
2019-01-30T07:31:25.311Z,16.70
2019-01-30T07:33:26.140Z,18.70
2019-01-30T07:35:27.298Z,17.13
2019-01-30T07:37:28.230Z,21.53
2019-01-30T07:39:29.053Z,15.03
2019-01-30T07:41:30.195Z,15.93
2019-01-30T07:43:31.320Z,13.60
2019-01-30T07:45:32.158Z,16.50
2019-01-30T07:47:33.316Z,15.97
2019-01-30T07:49:34.168Z,15.67
2019-01-30T07:51:34.992Z,17.53
2019-01-30T07:53:35.836Z,18.43
2019-01-30T07:55:36.672Z,18.67
2019-01-30T07:57:37.517Z,17.03
2019-01-30T07:59:38.381Z,17.53
2019-01-30T08:01:39.532Z,17.43
2019-01-30T08:03:40.361Z,19.27
2019-01-30T08:05:41.207Z,18.97
2019-01-30T08:07:42.137Z,17.00
2019-01-30T08:09:43.401Z,16.37
2019-01-30T08:11:44.232Z,15.50
2019-01-30T08:13:45.080Z,15.57
2019-01-30T08:15:46.205Z,16.97
2019-01-30T08:17:47.027Z,16.83
2019-01-30T08:19:48.155Z,8.90
2019-01-30T08:21:49.000Z,10.37
2019-01-30T08:23:50.597Z,10.67
2019-01-30T08:25:52.270Z,9.37
2019-01-30T08:27:53.576Z,8.43
2019-01-30T08:29:55.224Z,8.80
2019-01-30T08:31:56.445Z,9.37
2019-01-30T08:33:57.409Z,10.43
2019-01-30T08:35:58.524Z,9.70
2019-01-30T08:37:59.368Z,7.70
2019-01-30T08:40:00.208Z,7.87
2019-01-30T08:42:01.064Z,9.67
2019-01-30T08:44:01.893Z,10.53
2019-01-30T08:46:02.758Z,7.97
2019-01-30T08:48:03.594Z,7.27
2019-01-30T08:50:04.429Z,7.40
2019-01-30T08:52:05.264Z,8.10
2019-01-30T08:54:06.100Z,8.87
2019-01-30T08:56:07.362Z,7.17
2019-01-30T08:58:08.204Z,8.67
2019-01-30T09:00:09.042Z,7.73
2019-01-30T09:02:09.890Z,9.50
2019-01-30T09:04:11.393Z,8.50
2019-01-30T09:06:12.357Z,6.43
2019-01-30T09:08:13.206Z,7.37
2019-01-30T09:10:14.142Z,9.47
2019-01-30T09:12:14.980Z,7.23
2019-01-30T09:14:15.837Z,7.63
2019-01-30T09:16:16.672Z,7.93
2019-01-30T09:18:17.521Z,6.73
2019-01-30T09:20:18.347Z,10.33
2019-01-30T09:22:19.184Z,8.23
2019-01-30T09:24:20.036Z,7.53
2019-01-30T09:26:20.872Z,10.57
2019-01-30T09:28:21.718Z,6.33
2019-01-30T09:30:22.571Z,6.00
2019-01-30T09:32:23.401Z,6.80
2019-01-30T09:34:24.530Z,7.83
2019-01-30T09:36:25.372Z,7.00
2019-01-30T09:38:26.224Z,7.53
2019-01-30T09:40:27.062Z,6.70
2019-01-30T09:42:27.888Z,9.33
2019-01-30T09:44:28.741Z,8.93
2019-01-30T09:46:29.610Z,8.53
2019-01-30T09:48:30.510Z,9.10
2019-01-30T09:50:31.364Z,9.70
2019-01-30T09:52:32.221Z,9.07
2019-01-30T09:54:33.051Z,9.57
2019-01-30T09:56:33.910Z,8.90
2019-01-30T09:58:34.824Z,10.63
2019-01-30T10:00:35.657Z,8.77
2019-01-30T10:02:36.505Z,8.97
2019-01-30T10:04:37.642Z,9.90
2019-01-30T10:06:38.492Z,8.17
2019-01-30T10:08:39.328Z,8.63
2019-01-30T10:10:40.164Z,10.40
2019-01-30T10:12:41.016Z,9.70
2019-01-30T10:14:41.853Z,8.03
2019-01-30T10:16:42.713Z,9.17
2019-01-30T10:18:43.572Z,9.40
2019-01-30T10:20:44.401Z,9.77
2019-01-30T10:22:45.558Z,7.63
2019-01-30T10:24:46.387Z,9.27
2019-01-30T10:26:47.212Z,11.33
2019-01-30T10:28:48.364Z,9.43
2019-01-30T10:30:49.221Z,8.27
2019-01-30T10:32:50.052Z,10.03
2019-01-30T10:34:50.900Z,10.43
2019-01-30T10:36:51.761Z,10.50
2019-01-30T10:38:52.908Z,8.20
2019-01-30T10:40:54.082Z,9.53
2019-01-30T10:42:57.249Z,8.20
2019-01-30T10:44:57.656Z,8.73
2019-01-30T10:46:58.492Z,10.20
2019-01-30T10:48:59.340Z,8.87
2019-01-30T10:51:00.185Z,9.17
2019-01-30T10:53:01.013Z,9.80
2019-01-30T10:55:01.860Z,8.10
2019-01-30T10:57:02.700Z,10.40
2019-01-30T10:59:03.545Z,8.73
2019-01-30T11:01:04.380Z,8.47
2019-01-30T11:03:05.217Z,7.63
2019-01-30T11:05:06.269Z,7.47
2019-01-30T11:07:07.116Z,7.83
2019-01-30T11:09:08.301Z,10.13
2019-01-30T11:11:09.131Z,7.23
2019-01-30T11:13:09.965Z,7.20
2019-01-30T11:15:10.817Z,7.23
2019-01-30T11:17:11.672Z,7.93
2019-01-30T11:19:12.517Z,7.37
2019-01-30T11:21:13.706Z,7.40
2019-01-30T11:23:14.807Z,8.17
2019-01-30T11:25:15.969Z,7.73
2019-01-30T11:27:16.801Z,7.30
2019-01-30T11:29:17.640Z,7.20
2019-01-30T11:31:18.487Z,6.63
2019-01-30T11:33:19.600Z,5.77
2019-01-30T11:35:20.431Z,8.30
2019-01-30T11:37:21.284Z,7.37
2019-01-30T11:39:22.428Z,5.83
2019-01-30T11:41:23.581Z,8.70
2019-01-30T11:43:24.408Z,8.63
2019-01-30T11:45:25.239Z,8.07
2019-01-30T11:47:26.089Z,8.40
2019-01-30T11:49:26.932Z,6.90
2019-01-30T11:51:27.769Z,8.90
2019-01-30T11:53:28.981Z,11.07
2019-01-30T11:55:30.032Z,7.07
2019-01-30T11:57:30.860Z,5.73
2019-01-30T11:59:31.696Z,7.83
2019-01-30T12:01:32.649Z,6.73
2019-01-30T12:03:33.689Z,4.57
2019-01-30T12:05:34.782Z,4.83
2019-01-30T12:07:35.624Z,5.77
2019-01-30T12:09:36.480Z,3.60
2019-01-30T12:11:37.312Z,5.47
2019-01-30T12:13:38.251Z,4.80
2019-01-30T12:15:39.196Z,3.47
2019-01-30T12:17:40.020Z,2.00
2019-01-30T12:19:41.141Z,4.67
2019-01-30T12:21:41.977Z,1.77
2019-01-30T12:23:42.800Z,1.57
2019-01-30T12:25:43.975Z,7.70
2019-01-30T12:27:44.809Z,2.23
2019-01-30T12:29:45.901Z,1.67
2019-01-30T12:31:46.756Z,2.03
2019-01-30T12:33:47.881Z,2.30
2019-01-30T12:35:49.097Z,2.10
2019-01-30T12:37:49.964Z,4.17
2019-01-30T12:39:50.833Z,4.43
2019-01-30T12:41:51.665Z,1.73
2019-01-30T12:43:52.496Z,4.50
2019-01-30T12:45:53.332Z,2.70
2019-01-30T12:47:54.175Z,3.30
2019-01-30T12:49:55.365Z,2.83
2019-01-30T12:51:56.224Z,2.67
2019-01-30T12:53:57.336Z,1.43
2019-01-30T12:55:58.163Z,3.00
2019-01-30T12:57:59.014Z,5.10
2019-01-30T12:59:59.854Z,2.07
2019-01-30T13:02:00.704Z,1.40
2019-01-30T13:04:01.532Z,3.40
2019-01-30T13:06:02.364Z,1.30
2019-01-30T13:08:03.212Z,2.27
2019-01-30T13:10:04.069Z,9.50
2019-01-30T13:12:04.898Z,2.97
2019-01-30T13:14:05.732Z,1.60
2019-01-30T13:16:06.581Z,4.00
2019-01-30T13:18:17.496Z,5.83
2019-01-30T13:20:10.172Z,1.80
2019-01-30T13:22:11.009Z,2.00
2019-01-30T13:24:11.856Z,4.80
2019-01-30T13:26:13.032Z,1.73
2019-01-30T13:28:14.161Z,1.30
2019-01-30T13:30:14.997Z,2.37
2019-01-30T13:32:17.764Z,1.77
2019-01-30T13:34:18.592Z,1.80
2019-01-30T13:36:19.749Z,2.07
2019-01-30T13:38:20.909Z,3.13
2019-01-30T13:40:21.736Z,1.50
2019-01-30T13:42:22.564Z,1.60
2019-01-30T13:44:23.712Z,2.73
2019-01-30T13:46:24.843Z,1.70
2019-01-30T13:48:25.996Z,1.63
2019-01-30T13:50:26.826Z,1.43
2019-01-30T13:52:27.980Z,1.53
2019-01-30T13:54:28.917Z,2.53
2019-01-30T13:56:29.861Z,1.60
2019-01-30T13:58:30.776Z,2.83
2019-01-30T14:00:31.616Z,3.03
2019-01-30T14:02:32.456Z,2.80
2019-01-30T14:04:33.316Z,5.27
2019-01-30T14:06:34.525Z,2.63
2019-01-30T14:08:35.356Z,2.57
2019-01-30T14:10:36.225Z,1.93
2019-01-30T14:12:37.319Z,1.43
2019-01-30T14:14:38.244Z,1.67
2019-01-30T14:16:39.100Z,1.60
2019-01-30T14:18:40.282Z,2.07
2019-01-30T14:20:41.188Z,1.60
2019-01-30T14:22:42.024Z,1.60
2019-01-30T14:24:42.903Z,2.73
2019-01-30T14:26:43.845Z,1.80
2019-01-30T14:28:44.997Z,2.73
2019-01-30T14:30:45.848Z,2.13
2019-01-30T14:32:46.696Z,2.40
2019-01-30T14:34:47.562Z,4.37
2019-01-30T14:36:48.393Z,1.73
2019-01-30T14:38:49.588Z,1.57
2019-01-30T14:40:50.709Z,1.30
2019-01-30T14:42:51.620Z,1.67
2019-01-30T14:44:52.532Z,1.50
2019-01-30T14:46:53.387Z,2.97
2019-01-30T14:48:54.232Z,2.10
2019-01-30T14:50:55.185Z,1.70
2019-01-30T14:52:56.052Z,1.57
2019-01-30T14:54:56.880Z,2.87
2019-01-30T14:56:57.717Z,2.30
2019-01-30T14:58:58.840Z,1.63
2019-01-30T15:00:59.681Z,1.97
2019-01-30T15:03:00.560Z,1.60
2019-01-30T15:05:01.456Z,1.60
2019-01-30T15:07:02.416Z,2.17
2019-01-30T15:09:06.716Z,2.70
2019-01-30T15:11:06.939Z,2.20
2019-01-30T15:13:07.906Z,2.27
2019-01-30T15:15:09.059Z,2.17
2019-01-30T15:17:09.894Z,2.93
2019-01-30T15:19:10.755Z,1.77
2019-01-30T15:21:11.601Z,2.10
2019-01-30T15:23:12.445Z,1.80
2019-01-30T15:25:13.641Z,1.80
2019-01-30T15:27:14.780Z,2.50
2019-01-30T15:29:15.636Z,2.10
2019-01-30T15:31:16.484Z,1.90
2019-01-30T15:33:17.336Z,1.50
2019-01-30T15:35:18.169Z,1.80
2019-01-30T15:37:19.008Z,2.43
2019-01-30T15:39:19.861Z,2.63
2019-01-30T15:41:20.688Z,3.20
2019-01-30T15:43:21.524Z,2.53
2019-01-30T15:45:22.705Z,2.13
2019-01-30T15:47:23.549Z,2.07
2019-01-30T15:49:24.399Z,1.90
2019-01-30T15:51:25.246Z,1.63
2019-01-30T15:53:26.080Z,1.80
2019-01-30T15:55:27.281Z,1.60
2019-01-30T15:57:28.446Z,2.40
2019-01-30T15:59:29.277Z,2.10
2019-01-30T16:01:30.133Z,2.50
2019-01-30T16:03:31.316Z,3.53
2019-01-30T16:05:32.183Z,5.23
2019-01-30T16:07:33.030Z,2.17
2019-01-30T16:09:33.864Z,2.47
2019-01-30T16:11:34.697Z,2.20
2019-01-30T16:13:35.533Z,2.37
2019-01-30T16:15:36.376Z,2.43
2019-01-30T16:17:37.261Z,2.00
2019-01-30T16:19:38.097Z,1.60
2019-01-30T16:21:38.929Z,1.80
2019-01-30T16:23:39.781Z,1.70
2019-01-30T16:25:40.608Z,3.37
2019-01-30T16:27:41.744Z,4.30
2019-01-30T16:29:42.568Z,9.07
2019-01-30T16:31:43.412Z,5.90
2019-01-30T16:33:44.244Z,4.53
2019-01-30T16:35:55.275Z,2.97
2019-01-30T16:37:48.153Z,4.20
2019-01-30T16:39:48.985Z,9.87
2019-01-30T16:41:49.832Z,7.43
2019-01-30T16:43:50.664Z,3.03
2019-01-30T16:45:51.882Z,4.33
2019-01-30T16:47:52.728Z,4.13
2019-01-30T16:49:53.565Z,3.47
2019-01-30T16:51:54.405Z,3.93
2019-01-30T16:53:55.260Z,3.03
2019-01-30T16:55:56.095Z,2.10
2019-01-30T16:57:56.941Z,2.00
2019-01-30T16:59:57.776Z,2.80
2019-01-30T17:01:58.600Z,3.83
2019-01-30T17:03:59.457Z,3.03
2019-01-30T17:06:07.159Z,2.27
2019-01-30T17:08:03.020Z,4.63
2019-01-30T17:10:03.872Z,3.07
2019-01-30T17:12:04.709Z,3.10
2019-01-30T17:14:05.792Z,5.43
2019-01-30T17:16:06.644Z,2.30
2019-01-30T17:18:07.768Z,4.83
2019-01-30T17:20:08.627Z,3.87
2019-01-30T17:22:09.464Z,3.23
2019-01-30T17:24:10.318Z,3.80
2019-01-30T17:26:11.429Z,4.20
2019-01-30T17:28:12.252Z,4.93
2019-01-30T17:30:13.133Z,2.90
2019-01-30T17:32:14.340Z,4.03
2019-01-30T17:34:15.180Z,3.60
2019-01-30T17:36:18.486Z,3.90
2019-01-30T17:38:19.084Z,6.60
2019-01-30T17:40:20.129Z,4.57
2019-01-30T17:42:21.955Z,4.33
2019-01-30T17:44:22.920Z,3.67
2019-01-30T17:46:23.776Z,3.87
2019-01-30T17:48:24.883Z,4.53
2019-01-30T17:50:25.700Z,3.77
2019-01-30T17:52:26.557Z,4.50
2019-01-30T17:54:27.421Z,4.40
2019-01-30T17:56:28.517Z,3.90
2019-01-30T17:58:29.364Z,3.80
2019-01-30T18:00:34.517Z,5.27
2019-01-30T18:02:35.360Z,4.23
2019-01-30T18:04:36.217Z,6.53
2019-01-30T18:06:37.048Z,3.47
2019-01-30T18:08:37.904Z,4.30
2019-01-30T18:10:39.056Z,4.80
2019-01-30T18:12:39.920Z,5.03
2019-01-30T18:14:40.788Z,5.50
2019-01-30T18:16:41.614Z,3.40
2019-01-30T18:18:42.469Z,5.03
2019-01-30T18:20:43.406Z,3.63
2019-01-30T18:22:44.534Z,3.50
2019-01-30T18:24:46.048Z,3.10
2019-01-30T18:26:46.892Z,2.97
2019-01-30T18:28:48.056Z,5.30
2019-01-30T18:30:49.099Z,4.37
2019-01-30T18:32:49.927Z,5.10
2019-01-30T18:34:50.780Z,4.83
2019-01-30T18:36:51.608Z,4.03
2019-01-30T18:38:52.456Z,2.53
2019-01-30T18:40:53.297Z,5.23
2019-01-30T18:42:54.124Z,2.57
2019-01-30T18:44:55.279Z,3.70
2019-01-30T18:46:56.156Z,4.37
2019-01-30T18:48:57.003Z,5.37
2019-01-30T18:50:58.193Z,5.23
2019-01-30T18:52:59.027Z,6.07
2019-01-30T18:54:59.868Z,3.87
2019-01-30T18:57:00.704Z,4.50
2019-01-30T18:59:01.540Z,2.90
2019-01-30T19:01:02.488Z,3.07
2019-01-30T19:03:03.789Z,4.47
2019-01-30T19:05:04.617Z,2.90
2019-01-30T19:07:05.500Z,4.37
2019-01-30T19:09:06.592Z,5.70
2019-01-30T19:11:07.849Z,4.17
2019-01-30T19:13:08.696Z,3.60
2019-01-30T19:15:09.809Z,4.63
2019-01-30T19:17:10.812Z,3.37
2019-01-30T19:19:11.666Z,3.10
2019-01-30T19:21:12.521Z,3.47
2019-01-30T19:23:13.369Z,5.47
2019-01-30T19:25:14.326Z,5.90
2019-01-30T19:27:15.265Z,3.30
2019-01-30T19:29:16.101Z,3.90
2019-01-30T19:31:16.949Z,3.20
2019-01-30T19:33:17.780Z,3.47
2019-01-30T19:35:18.631Z,2.87
2019-01-30T19:37:19.513Z,4.17
2019-01-30T19:39:20.345Z,4.13
2019-01-30T19:41:21.193Z,3.27
2019-01-30T19:43:22.039Z,4.30
2019-01-30T19:45:22.876Z,4.30
2019-01-30T19:47:24.182Z,4.03
2019-01-30T19:49:25.005Z,4.47
2019-01-30T19:51:25.846Z,5.57
2019-01-30T19:53:26.688Z,4.97
2019-01-30T19:55:27.524Z,4.93
2019-01-30T19:57:28.463Z,4.90
2019-01-30T19:59:29.589Z,5.90
2019-01-30T20:01:36.314Z,4.67
2019-01-30T20:03:33.320Z,4.13
2019-01-30T20:05:34.170Z,5.67
2019-01-30T20:07:35.019Z,6.13
2019-01-30T20:09:36.219Z,4.60
2019-01-30T20:11:37.349Z,3.83
2019-01-30T20:13:38.208Z,4.47
2019-01-30T20:15:39.056Z,4.33
2019-01-30T20:17:39.969Z,6.13
2019-01-30T20:19:40.816Z,5.40
2019-01-30T20:21:41.647Z,5.27
2019-01-30T20:23:42.769Z,4.97
2019-01-30T20:25:44.106Z,5.33
2019-01-30T20:27:45.061Z,5.13
2019-01-30T20:29:46.012Z,5.63
2019-01-30T20:31:46.936Z,4.90
2019-01-30T20:33:48.033Z,4.50
2019-01-30T20:35:48.880Z,6.00
2019-01-30T20:37:49.734Z,5.90
2019-01-30T20:39:50.581Z,4.53
2019-01-30T20:41:51.450Z,10.10
2019-01-30T20:43:52.328Z,7.23
2019-01-30T20:45:53.270Z,7.70
2019-01-30T20:47:54.640Z,8.30
2019-01-30T20:49:55.472Z,6.03
2019-01-30T20:51:56.572Z,5.03
2019-01-30T20:53:57.454Z,7.83
2019-01-30T20:55:58.305Z,6.03
2019-01-30T20:57:59.268Z,7.10
2019-01-30T21:00:00.336Z,6.97
2019-01-30T21:02:01.229Z,6.27
2019-01-30T21:04:02.415Z,10.33
2019-01-30T21:06:03.579Z,7.70
2019-01-30T21:08:04.438Z,6.10
2019-01-30T21:10:05.322Z,8.47
2019-01-30T21:12:06.197Z,6.60
2019-01-30T21:14:07.056Z,7.93
2019-01-30T21:16:08.812Z,6.03
2019-01-30T21:18:09.663Z,6.20
2019-01-30T21:20:10.540Z,6.93
2019-01-30T21:22:11.393Z,8.20
2019-01-30T21:24:12.508Z,6.03
2019-01-30T21:26:13.380Z,8.80
2019-01-30T21:28:14.341Z,7.73
2019-01-30T21:30:15.303Z,7.40
2019-01-30T21:32:16.159Z,6.53
2019-01-30T21:34:17.036Z,10.77
2019-01-30T21:36:18.177Z,11.63
2019-01-30T21:38:19.026Z,11.47
2019-01-30T21:40:19.908Z,18.07
2019-01-30T21:42:20.777Z,16.83
2019-01-30T21:44:21.638Z,21.40
2019-01-30T21:46:22.505Z,18.23
2019-01-30T21:48:23.349Z,13.10
2019-01-30T21:50:24.184Z,14.20
2019-01-30T21:52:25.021Z,14.97
2019-01-30T21:54:25.885Z,12.67
2019-01-30T21:56:26.729Z,12.53
2019-01-30T21:58:27.861Z,12.13
2019-01-30T22:00:28.826Z,10.53
2019-01-30T22:02:29.704Z,8.20
2019-01-30T22:04:30.545Z,10.80
2019-01-30T22:06:31.410Z,8.57
2019-01-30T22:08:32.228Z,9.87
2019-01-30T22:10:33.089Z,8.00
2019-01-30T22:12:33.924Z,9.60
2019-01-30T22:14:34.747Z,12.23
2019-01-30T22:16:36.072Z,10.33
2019-01-30T22:18:36.924Z,9.13
2019-01-30T22:20:37.761Z,8.87
2019-01-30T22:22:38.600Z,8.83
2019-01-30T22:24:39.435Z,10.87
2019-01-30T22:26:40.300Z,9.13
2019-01-30T22:28:41.152Z,9.63
2019-01-30T22:30:42.036Z,9.37
2019-01-30T22:32:42.891Z,10.10
2019-01-30T22:34:44.056Z,8.67
2019-01-30T22:36:45.096Z,10.70
2019-01-30T22:38:45.962Z,9.93
2019-01-30T22:40:46.948Z,9.47
2019-01-30T22:42:47.793Z,8.00
2019-01-30T22:44:48.628Z,7.40
2019-01-30T22:46:49.501Z,7.97
2019-01-30T22:48:50.336Z,7.87
2019-01-30T22:50:51.196Z,7.63
2019-01-30T22:52:52.029Z,6.50
2019-01-30T22:54:52.877Z,7.47
2019-01-30T22:56:53.733Z,8.27
2019-01-30T22:58:54.872Z,7.30
2019-01-30T23:01:00.982Z,7.27
2019-01-30T23:03:02.036Z,6.33
2019-01-30T23:05:02.872Z,7.50
2019-01-30T23:07:03.704Z,8.20
2019-01-30T23:09:04.543Z,6.83
2019-01-30T23:11:05.384Z,10.20
2019-01-30T23:13:06.245Z,10.83
2019-01-30T23:15:07.289Z,12.57
2019-01-30T23:17:08.136Z,13.63
2019-01-30T23:19:08.992Z,14.10
2019-01-30T23:21:09.824Z,11.80
2019-01-30T23:23:10.920Z,10.13
2019-01-30T23:25:12.081Z,12.63
2019-01-30T23:27:12.909Z,12.00
2019-01-30T23:29:13.737Z,13.90
2019-01-30T23:31:14.580Z,9.43
2019-01-30T23:33:15.441Z,10.03
2019-01-30T23:35:16.552Z,9.27
2019-01-30T23:37:17.365Z,13.10
2019-01-30T23:39:18.244Z,12.23
2019-01-30T23:41:19.170Z,14.63
2019-01-30T23:43:19.999Z,11.50
2019-01-30T23:45:20.824Z,17.47
2019-01-30T23:47:21.672Z,16.83
2019-01-30T23:49:22.772Z,16.03
2019-01-30T23:51:23.916Z,13.73
2019-01-30T23:53:24.757Z,15.30
2019-01-30T23:55:25.593Z,16.30
2019-01-30T23:57:26.448Z,14.40
2019-01-30T23:59:27.558Z,12.93
